Harmony, Minnesota
Current Conditions -  °F | °C
As of 12:55 PM on Friday 31 Oct 2014 (Local Time) from KFKA Reporting Station
Scattered Clouds Scattered Clouds  
Wind Chill: 26°   Ceiling: Unl
Heat Index: 35°   Visibility: 10mi
Dew Point: 19°   Wind: 14mph
Humidity: 52%   Direction: 20°NNE
Pressure: 30.46"   Gusts: 20mph
Location:  43.56°N, 92.01°W
Report Text: KFKA 311755Z AUTO 02012G17KT 10SM SCT039 02/M07 A3046 RMK AO2 T00191071 10019 21040
Loading
Personal Weather Stations






























Interactive Weather Map
Tropical Storm Tracking
New forecast layout! Learn more

10-Day Weather Forecast

Advertisements
Track Severe Weather on mobile